sensor_id;sensor_type;location;lat;lon;timestamp;P1;durP1;ratioP1;P2;durP2;ratioP2
45039;SDS011;30778;53.574;7.770;2023-09-07T00:00:31;5.97;;;1.58;;
45039;SDS011;30778;53.574;7.770;2023-09-07T00:02:56;2.17;;;1.40;;
45039;SDS011;30778;53.574;7.770;2023-09-07T00:05:21;2.05;;;1.38;;
45039;SDS011;30778;53.574;7.770;2023-09-07T00:07:47;4.15;;;1.35;;
45039;SDS011;30778;53.574;7.770;2023-09-07T00:10:12;2.83;;;1.30;;
45039;SDS011;30778;53.574;7.770;2023-09-07T00:12:38;2.17;;;1.48;;
45039;SDS011;30778;53.574;7.770;2023-09-07T00:15:04;5.00;;;2.10;;
45039;SDS011;30778;53.574;7.770;2023-09-07T00:17:32;1.92;;;1.42;;
45039;SDS011;30778;53.574;7.770;2023-09-07T00:19:58;1.67;;;0.80;;
45039;SDS011;30778;53.574;7.770;2023-09-07T00:22:23;2.70;;;1.98;;
45039;SDS011;30778;53.574;7.770;2023-09-07T00:24:50;3.58;;;1.45;;
45039;SDS011;30778;53.574;7.770;2023-09-07T00:27:16;3.67;;;1.42;;
45039;SDS011;30778;53.574;7.770;2023-09-07T00:29:42;3.25;;;1.67;;
45039;SDS011;30778;53.574;7.770;2023-09-07T00:32:07;3.50;;;1.65;;
45039;SDS011;30778;53.574;7.770;2023-09-07T00:34:33;4.03;;;1.25;;
45039;SDS011;30778;53.574;7.770;2023-09-07T00:36:59;2.30;;;1.35;;
45039;SDS011;30778;53.574;7.770;2023-09-07T00:39:25;3.55;;;1.17;;
45039;SDS011;30778;53.574;7.770;2023-09-07T00:41:51;1.23;;;0.93;;
45039;SDS011;30778;53.574;7.770;2023-09-07T00:44:16;2.33;;;1.80;;
45039;SDS011;30778;53.574;7.770;2023-09-07T00:46:42;1.73;;;1.45;;
45039;SDS011;30778;53.574;7.770;2023-09-07T00:49:11;2.15;;;1.40;;
45039;SDS011;30778;53.574;7.770;2023-09-07T00:51:37;3.72;;;2.45;;
45039;SDS011;30778;53.574;7.770;2023-09-07T00:54:03;2.47;;;1.45;;
45039;SDS011;30778;53.574;7.770;2023-09-07T00:56:28;1.50;;;1.40;;
45039;SDS011;30778;53.574;7.770;2023-09-07T00:58:54;3.53;;;1.30;;
45039;SDS011;30778;53.574;7.770;2023-09-07T01:01:22;2.67;;;1.15;;
45039;SDS011;30778;53.574;7.770;2023-09-07T01:03:49;2.03;;;1.15;;
45039;SDS011;30778;53.574;7.770;2023-09-07T01:06:17;1.70;;;1.33;;
45039;SDS011;30778;53.574;7.770;2023-09-07T01:08:46;1.83;;;1.40;;
45039;SDS011;30778;53.574;7.770;2023-09-07T01:11:15;5.10;;;1.65;;
45039;SDS011;30778;53.574;7.770;2023-09-07T01:13:42;2.40;;;1.40;;
45039;SDS011;30778;53.574;7.770;2023-09-07T01:16:08;2.17;;;1.98;;
45039;SDS011;30778;53.574;7.770;2023-09-07T01:18:36;7.03;;;2.17;;
45039;SDS011;30778;53.574;7.770;2023-09-07T01:21:06;4.57;;;1.88;;
45039;SDS011;30778;53.574;7.770;2023-09-07T01:23:37;2.00;;;1.50;;
45039;SDS011;30778;53.574;7.770;2023-09-07T01:26:06;4.35;;;1.90;;
45039;SDS011;30778;53.574;7.770;2023-09-07T01:28:33;2.75;;;1.52;;
45039;SDS011;30778;53.574;7.770;2023-09-07T01:30:59;2.25;;;1.95;;
45039;SDS011;30778;53.574;7.770;2023-09-07T01:33:26;1.67;;;0.95;;
45039;SDS011;30778;53.574;7.770;2023-09-07T01:35:52;1.85;;;1.48;;
45039;SDS011;30778;53.574;7.770;2023-09-07T01:38:18;2.92;;;1.27;;
45039;SDS011;30778;53.574;7.770;2023-09-07T01:40:43;1.92;;;1.50;;
45039;SDS011;30778;53.574;7.770;2023-09-07T01:43:10;1.30;;;1.00;;
45039;SDS011;30778;53.574;7.770;2023-09-07T01:45:35;2.55;;;1.40;;
45039;SDS011;30778;53.574;7.770;2023-09-07T01:48:01;2.75;;;1.20;;
45039;SDS011;30778;53.574;7.770;2023-09-07T01:50:29;2.35;;;1.40;;
45039;SDS011;30778;53.574;7.770;2023-09-07T01:52:55;1.80;;;1.08;;
45039;SDS011;30778;53.574;7.770;2023-09-07T01:55:21;2.33;;;1.38;;
45039;SDS011;30778;53.574;7.770;2023-09-07T01:57:46;1.92;;;1.50;;
45039;SDS011;30778;53.574;7.770;2023-09-07T02:00:12;2.88;;;1.55;;
45039;SDS011;30778;53.574;7.770;2023-09-07T02:02:40;3.35;;;1.30;;
45039;SDS011;30778;53.574;7.770;2023-09-07T02:05:06;2.10;;;1.20;;
45039;SDS011;30778;53.574;7.770;2023-09-07T02:07:32;4.75;;;1.67;;
45039;SDS011;30778;53.574;7.770;2023-09-07T02:09:57;2.72;;;1.98;;
45039;SDS011;30778;53.574;7.770;2023-09-07T02:12:22;2.17;;;1.70;;
45039;SDS011;30778;53.574;7.770;2023-09-07T02:14:48;2.78;;;2.50;;
45039;SDS011;30778;53.574;7.770;2023-09-07T02:17:13;2.22;;;2.03;;
45039;SDS011;30778;53.574;7.770;2023-09-07T02:19:44;4.05;;;1.83;;
45039;SDS011;30778;53.574;7.770;2023-09-07T02:22:10;3.95;;;2.00;;
45039;SDS011;30778;53.574;7.770;2023-09-07T02:24:36;3.25;;;2.42;;
45039;SDS011;30778;53.574;7.770;2023-09-07T02:27:01;2.53;;;2.33;;
45039;SDS011;30778;53.574;7.770;2023-09-07T02:29:27;3.45;;;2.20;;
45039;SDS011;30778;53.574;7.770;2023-09-07T02:31:52;3.45;;;2.40;;
45039;SDS011;30778;53.574;7.770;2023-09-07T02:34:19;3.25;;;2.10;;
45039;SDS011;30778;53.574;7.770;2023-09-07T02:36:44;2.55;;;2.03;;
45039;SDS011;30778;53.574;7.770;2023-09-07T02:39:10;3.05;;;1.70;;
45039;SDS011;30778;53.574;7.770;2023-09-07T02:41:37;2.22;;;1.38;;
45039;SDS011;30778;53.574;7.770;2023-09-07T02:44:03;4.35;;;2.15;;
45039;SDS011;30778;53.574;7.770;2023-09-07T02:46:29;2.50;;;1.77;;
45039;SDS011;30778;53.574;7.770;2023-09-07T02:48:56;2.33;;;1.98;;
45039;SDS011;30778;53.574;7.770;2023-09-07T02:51:24;2.80;;;1.63;;
45039;SDS011;30778;53.574;7.770;2023-09-07T02:53:50;2.65;;;2.10;;
45039;SDS011;30778;53.574;7.770;2023-09-07T02:56:17;3.65;;;1.77;;
45039;SDS011;30778;53.574;7.770;2023-09-07T02:58:43;3.70;;;2.10;;
45039;SDS011;30778;53.574;7.770;2023-09-07T03:01:10;4.00;;;1.92;;
45039;SDS011;30778;53.574;7.770;2023-09-07T03:03:36;2.42;;;2.15;;
45039;SDS011;30778;53.574;7.770;2023-09-07T03:06:10;3.63;;;2.78;;
45039;SDS011;30778;53.574;7.770;2023-09-07T03:08:39;2.08;;;1.75;;
45039;SDS011;30778;53.574;7.770;2023-09-07T03:11:05;2.88;;;1.63;;
45039;SDS011;30778;53.574;7.770;2023-09-07T03:13:32;2.28;;;1.73;;
45039;SDS011;30778;53.574;7.770;2023-09-07T03:15:58;3.90;;;3.22;;
45039;SDS011;30778;53.574;7.770;2023-09-07T03:18:24;3.22;;;2.83;;
45039;SDS011;30778;53.574;7.770;2023-09-07T03:20:50;3.47;;;3.10;;
45039;SDS011;30778;53.574;7.770;2023-09-07T03:23:16;5.13;;;4.22;;
45039;SDS011;30778;53.574;7.770;2023-09-07T03:25:43;3.65;;;3.35;;
45039;SDS011;30778;53.574;7.770;2023-09-07T03:28:08;3.20;;;2.70;;
45039;SDS011;30778;53.574;7.770;2023-09-07T03:30:35;3.83;;;3.38;;
45039;SDS011;30778;53.574;7.770;2023-09-07T03:33:02;6.30;;;2.75;;
45039;SDS011;30778;53.574;7.770;2023-09-07T03:35:31;4.43;;;4.00;;
45039;SDS011;30778;53.574;7.770;2023-09-07T03:37:56;6.45;;;2.83;;
45039;SDS011;30778;53.574;7.770;2023-09-07T03:40:22;3.55;;;2.95;;
45039;SDS011;30778;53.574;7.770;2023-09-07T03:42:48;6.15;;;3.53;;
45039;SDS011;30778;53.574;7.770;2023-09-07T03:45:15;6.05;;;3.58;;
45039;SDS011;30778;53.574;7.770;2023-09-07T03:47:41;5.25;;;3.90;;
45039;SDS011;30778;53.574;7.770;2023-09-07T03:50:08;5.13;;;3.20;;
45039;SDS011;30778;53.574;7.770;2023-09-07T03:52:35;4.47;;;3.58;;
45039;SDS011;30778;53.574;7.770;2023-09-07T03:55:02;4.65;;;3.40;;
45039;SDS011;30778;53.574;7.770;2023-09-07T03:57:29;6.63;;;3.88;;
45039;SDS011;30778;53.574;7.770;2023-09-07T03:59:56;4.85;;;3.40;;
45039;SDS011;30778;53.574;7.770;2023-09-07T04:02:22;4.80;;;3.20;;
45039;SDS011;30778;53.574;7.770;2023-09-07T04:04:51;3.05;;;2.65;;
45039;SDS011;30778;53.574;7.770;2023-09-07T04:07:18;5.25;;;3.30;;
45039;SDS011;30778;53.574;7.770;2023-09-07T04:09:45;4.53;;;3.33;;
45039;SDS011;30778;53.574;7.770;2023-09-07T04:12:11;4.80;;;3.15;;
45039;SDS011;30778;53.574;7.770;2023-09-07T04:14:37;6.63;;;3.30;;
45039;SDS011;30778;53.574;7.770;2023-09-07T04:17:04;4.60;;;3.17;;
45039;SDS011;30778;53.574;7.770;2023-09-07T04:19:30;4.07;;;3.15;;
45039;SDS011;30778;53.574;7.770;2023-09-07T04:21:56;5.72;;;3.25;;
45039;SDS011;30778;53.574;7.770;2023-09-07T04:24:23;5.53;;;3.30;;
45039;SDS011;30778;53.574;7.770;2023-09-07T04:26:49;3.72;;;3.10;;
45039;SDS011;30778;53.574;7.770;2023-09-07T04:29:17;5.20;;;3.33;;
45039;SDS011;30778;53.574;7.770;2023-09-07T04:31:43;4.53;;;3.63;;
45039;SDS011;30778;53.574;7.770;2023-09-07T04:34:09;3.78;;;3.47;;
45039;SDS011;30778;53.574;7.770;2023-09-07T04:36:35;10.32;;;4.05;;
45039;SDS011;30778;53.574;7.770;2023-09-07T04:39:01;4.53;;;4.07;;
45039;SDS011;30778;53.574;7.770;2023-09-07T04:41:29;5.43;;;3.50;;
45039;SDS011;30778;53.574;7.770;2023-09-07T04:43:56;4.07;;;3.20;;
45039;SDS011;30778;53.574;7.770;2023-09-07T04:46:22;4.10;;;3.63;;
45039;SDS011;30778;53.574;7.770;2023-09-07T04:48:48;4.03;;;3.50;;
45039;SDS011;30778;53.574;7.770;2023-09-07T04:51:15;7.68;;;4.05;;
45039;SDS011;30778;53.574;7.770;2023-09-07T04:53:43;4.20;;;3.28;;
45039;SDS011;30778;53.574;7.770;2023-09-07T04:56:08;5.30;;;3.47;;
45039;SDS011;30778;53.574;7.770;2023-09-07T04:58:34;4.00;;;3.60;;
45039;SDS011;30778;53.574;7.770;2023-09-07T05:01:01;5.38;;;3.90;;
45039;SDS011;30778;53.574;7.770;2023-09-07T05:03:30;4.22;;;3.83;;
45039;SDS011;30778;53.574;7.770;2023-09-07T05:05:56;3.95;;;3.55;;
45039;SDS011;30778;53.574;7.770;2023-09-07T05:08:22;5.05;;;3.97;;
45039;SDS011;30778;53.574;7.770;2023-09-07T05:10:59;5.65;;;3.92;;
45039;SDS011;30778;53.574;7.770;2023-09-07T05:13:29;4.97;;;3.95;;
45039;SDS011;30778;53.574;7.770;2023-09-07T05:15:58;4.50;;;3.97;;
45039;SDS011;30778;53.574;7.770;2023-09-07T05:18:25;10.20;;;4.55;;
45039;SDS011;30778;53.574;7.770;2023-09-07T05:20:50;6.32;;;4.93;;
45039;SDS011;30778;53.574;7.770;2023-09-07T05:23:19;5.25;;;4.75;;
45039;SDS011;30778;53.574;7.770;2023-09-07T05:25:47;9.48;;;4.65;;
45039;SDS011;30778;53.574;7.770;2023-09-07T05:28:16;7.63;;;3.78;;
45039;SDS011;30778;53.574;7.770;2023-09-07T05:30:42;8.25;;;3.85;;
45039;SDS011;30778;53.574;7.770;2023-09-07T05:33:12;4.93;;;4.40;;
45039;SDS011;30778;53.574;7.770;2023-09-07T05:35:39;8.55;;;4.47;;
45039;SDS011;30778;53.574;7.770;2023-09-07T05:38:05;4.80;;;4.40;;
45039;SDS011;30778;53.574;7.770;2023-09-07T05:40:35;5.22;;;4.13;;
45039;SDS011;30778;53.574;7.770;2023-09-07T05:43:02;7.97;;;4.40;;
45039;SDS011;30778;53.574;7.770;2023-09-07T05:45:30;6.90;;;4.32;;
45039;SDS011;30778;53.574;7.770;2023-09-07T05:47:57;5.03;;;4.30;;
45039;SDS011;30778;53.574;7.770;2023-09-07T05:50:22;6.72;;;4.80;;
45039;SDS011;30778;53.574;7.770;2023-09-07T05:52:48;5.95;;;3.33;;
45039;SDS011;30778;53.574;7.770;2023-09-07T05:55:14;10.70;;;5.80;;
45039;SDS011;30778;53.574;7.770;2023-09-07T05:57:40;5.50;;;4.75;;
45039;SDS011;30778;53.574;7.770;2023-09-07T06:00:06;8.63;;;4.68;;
45039;SDS011;30778;53.574;7.770;2023-09-07T06:02:38;7.18;;;4.80;;
45039;SDS011;30778;53.574;7.770;2023-09-07T06:05:06;15.07;;;4.95;;
45039;SDS011;30778;53.574;7.770;2023-09-07T06:07:32;9.48;;;3.85;;
45039;SDS011;30778;53.574;7.770;2023-09-07T06:09:58;4.75;;;3.85;;
45039;SDS011;30778;53.574;7.770;2023-09-07T06:12:25;6.25;;;4.30;;
45039;SDS011;30778;53.574;7.770;2023-09-07T06:14:50;3.90;;;3.40;;
45039;SDS011;30778;53.574;7.770;2023-09-07T06:17:17;4.85;;;4.35;;
45039;SDS011;30778;53.574;7.770;2023-09-07T06:19:43;3.83;;;3.22;;
45039;SDS011;30778;53.574;7.770;2023-09-07T06:22:09;7.00;;;3.17;;
45039;SDS011;30778;53.574;7.770;2023-09-07T06:24:35;3.40;;;3.10;;
45039;SDS011;30778;53.574;7.770;2023-09-07T06:27:01;4.05;;;3.10;;
45039;SDS011;30778;53.574;7.770;2023-09-07T06:29:26;7.47;;;4.07;;
45039;SDS011;30778;53.574;7.770;2023-09-07T06:31:52;4.85;;;2.55;;
45039;SDS011;30778;53.574;7.770;2023-09-07T06:34:19;6.25;;;3.08;;
45039;SDS011;30778;53.574;7.770;2023-09-07T06:36:45;4.05;;;3.25;;
45039;SDS011;30778;53.574;7.770;2023-09-07T06:39:11;6.13;;;3.28;;
45039;SDS011;30778;53.574;7.770;2023-09-07T06:41:36;5.15;;;3.08;;
45039;SDS011;30778;53.574;7.770;2023-09-07T06:44:02;3.13;;;2.83;;
45039;SDS011;30778;53.574;7.770;2023-09-07T06:46:29;3.10;;;2.80;;
45039;SDS011;30778;53.574;7.770;2023-09-07T06:48:54;3.50;;;3.20;;
45039;SDS011;30778;53.574;7.770;2023-09-07T06:51:23;4.90;;;2.97;;
45039;SDS011;30778;53.574;7.770;2023-09-07T06:53:48;8.23;;;3.40;;
45039;SDS011;30778;53.574;7.770;2023-09-07T06:56:16;5.97;;;2.72;;
45039;SDS011;30778;53.574;7.770;2023-09-07T06:58:42;5.70;;;3.50;;
45039;SDS011;30778;53.574;7.770;2023-09-07T07:01:07;6.32;;;3.72;;
45039;SDS011;30778;53.574;7.770;2023-09-07T07:03:33;7.03;;;3.67;;
45039;SDS011;30778;53.574;7.770;2023-09-07T07:06:02;8.15;;;3.78;;
45039;SDS011;30778;53.574;7.770;2023-09-07T07:08:27;3.45;;;3.13;;
45039;SDS011;30778;53.574;7.770;2023-09-07T07:10:53;6.75;;;3.53;;
45039;SDS011;30778;53.574;7.770;2023-09-07T07:13:19;5.32;;;3.08;;
45039;SDS011;30778;53.574;7.770;2023-09-07T07:15:45;4.43;;;3.05;;
45039;SDS011;30778;53.574;7.770;2023-09-07T07:18:11;3.88;;;3.15;;
45039;SDS011;30778;53.574;7.770;2023-09-07T07:20:41;5.03;;;3.90;;
45039;SDS011;30778;53.574;7.770;2023-09-07T07:23:09;4.03;;;3.05;;
45039;SDS011;30778;53.574;7.770;2023-09-07T07:25:35;5.13;;;2.38;;
45039;SDS011;30778;53.574;7.770;2023-09-07T07:28:02;4.03;;;3.05;;
45039;SDS011;30778;53.574;7.770;2023-09-07T07:30:33;4.50;;;2.97;;
45039;SDS011;30778;53.574;7.770;2023-09-07T07:33:00;4.55;;;2.92;;
45039;SDS011;30778;53.574;7.770;2023-09-07T07:35:26;4.68;;;2.90;;
45039;SDS011;30778;53.574;7.770;2023-09-07T07:37:52;3.28;;;2.53;;
45039;SDS011;30778;53.574;7.770;2023-09-07T07:40:18;5.63;;;3.58;;
45039;SDS011;30778;53.574;7.770;2023-09-07T07:42:44;5.70;;;3.08;;
45039;SDS011;30778;53.574;7.770;2023-09-07T07:45:12;5.07;;;3.10;;
45039;SDS011;30778;53.574;7.770;2023-09-07T07:47:40;2.72;;;2.53;;
45039;SDS011;30778;53.574;7.770;2023-09-07T07:50:07;3.33;;;3.00;;
45039;SDS011;30778;53.574;7.770;2023-09-07T07:52:33;2.97;;;2.60;;
45039;SDS011;30778;53.574;7.770;2023-09-07T07:54:59;2.88;;;2.13;;
45039;SDS011;30778;53.574;7.770;2023-09-07T07:57:25;4.28;;;2.10;;
45039;SDS011;30778;53.574;7.770;2023-09-07T07:59:50;3.72;;;2.88;;
45039;SDS011;30778;53.574;7.770;2023-09-07T08:02:16;6.22;;;2.50;;
45039;SDS011;30778;53.574;7.770;2023-09-07T08:04:42;4.60;;;2.75;;
45039;SDS011;30778;53.574;7.770;2023-09-07T08:07:08;4.57;;;3.40;;
45039;SDS011;30778;53.574;7.770;2023-09-07T08:09:34;5.15;;;2.42;;
45039;SDS011;30778;53.574;7.770;2023-09-07T08:12:00;5.70;;;2.95;;
45039;SDS011;30778;53.574;7.770;2023-09-07T08:14:31;6.43;;;2.50;;
45039;SDS011;30778;53.574;7.770;2023-09-07T08:16:57;4.95;;;2.75;;
45039;SDS011;30778;53.574;7.770;2023-09-07T08:19:23;3.25;;;2.30;;
45039;SDS011;30778;53.574;7.770;2023-09-07T08:21:49;7.32;;;2.90;;
45039;SDS011;30778;53.574;7.770;2023-09-07T08:24:15;5.57;;;2.20;;
45039;SDS011;30778;53.574;7.770;2023-09-07T08:26:41;7.15;;;2.42;;
45039;SDS011;30778;53.574;7.770;2023-09-07T08:29:08;5.13;;;2.30;;
45039;SDS011;30778;53.574;7.770;2023-09-07T08:31:35;2.45;;;2.25;;
45039;SDS011;30778;53.574;7.770;2023-09-07T08:34:01;3.58;;;2.38;;
45039;SDS011;30778;53.574;7.770;2023-09-07T08:36:28;2.47;;;2.00;;
45039;SDS011;30778;53.574;7.770;2023-09-07T08:38:57;5.13;;;2.83;;
45039;SDS011;30778;53.574;7.770;2023-09-07T08:41:26;3.70;;;2.55;;
45039;SDS011;30778;53.574;7.770;2023-09-07T08:43:53;2.22;;;1.98;;
45039;SDS011;30778;53.574;7.770;2023-09-07T08:46:22;2.92;;;2.53;;
45039;SDS011;30778;53.574;7.770;2023-09-07T08:48:48;2.28;;;2.05;;
45039;SDS011;30778;53.574;7.770;2023-09-07T08:51:15;7.30;;;3.08;;
45039;SDS011;30778;53.574;7.770;2023-09-07T08:53:42;4.45;;;2.70;;
45039;SDS011;30778;53.574;7.770;2023-09-07T08:56:14;3.42;;;3.08;;
45039;SDS011;30778;53.574;7.770;2023-09-07T08:58:41;2.83;;;2.30;;
45039;SDS011;30778;53.574;7.770;2023-09-07T09:01:06;2.22;;;2.03;;
45039;SDS011;30778;53.574;7.770;2023-09-07T09:03:41;7.72;;;2.60;;
45039;SDS011;30778;53.574;7.770;2023-09-07T09:06:07;3.65;;;2.78;;
45039;SDS011;30778;53.574;7.770;2023-09-07T09:08:43;5.93;;;2.60;;
45039;SDS011;30778;53.574;7.770;2023-09-07T09:11:32;3.75;;;2.60;;
45039;SDS011;30778;53.574;7.770;2023-09-07T09:13:58;4.10;;;3.05;;
45039;SDS011;30778;53.574;7.770;2023-09-07T09:16:25;5.25;;;3.80;;
45039;SDS011;30778;53.574;7.770;2023-09-07T09:18:51;4.82;;;3.63;;
45039;SDS011;30778;53.574;7.770;2023-09-07T09:21:21;5.07;;;2.88;;
45039;SDS011;30778;53.574;7.770;2023-09-07T09:23:51;4.72;;;2.92;;
45039;SDS011;30778;53.574;7.770;2023-09-07T09:26:20;4.40;;;2.88;;
45039;SDS011;30778;53.574;7.770;2023-09-07T09:28:45;5.35;;;3.72;;
45039;SDS011;30778;53.574;7.770;2023-09-07T09:31:11;7.70;;;2.65;;
45039;SDS011;30778;53.574;7.770;2023-09-07T09:33:41;8.30;;;2.97;;
45039;SDS011;30778;53.574;7.770;2023-09-07T09:36:08;2.67;;;2.17;;
45039;SDS011;30778;53.574;7.770;2023-09-07T09:38:34;4.82;;;3.17;;
45039;SDS011;30778;53.574;7.770;2023-09-07T09:41:00;5.43;;;3.30;;
45039;SDS011;30778;53.574;7.770;2023-09-07T09:43:28;7.20;;;3.08;;
45039;SDS011;30778;53.574;7.770;2023-09-07T09:45:54;5.35;;;2.60;;
45039;SDS011;30778;53.574;7.770;2023-09-07T09:48:20;5.68;;;3.15;;
45039;SDS011;30778;53.574;7.770;2023-09-07T09:50:48;6.53;;;2.42;;
45039;SDS011;30778;53.574;7.770;2023-09-07T09:53:15;7.50;;;3.03;;
45039;SDS011;30778;53.574;7.770;2023-09-07T09:55:46;6.55;;;4.03;;
45039;SDS011;30778;53.574;7.770;2023-09-07T09:58:16;4.60;;;3.05;;
45039;SDS011;30778;53.574;7.770;2023-09-07T10:00:46;5.80;;;3.15;;
45039;SDS011;30778;53.574;7.770;2023-09-07T10:03:28;2.80;;;2.60;;
45039;SDS011;30778;53.574;7.770;2023-09-07T10:06:09;4.38;;;2.80;;
45039;SDS011;30778;53.574;7.770;2023-09-07T10:08:37;4.65;;;2.70;;
45039;SDS011;30778;53.574;7.770;2023-09-07T10:11:08;4.28;;;2.88;;
45039;SDS011;30778;53.574;7.770;2023-09-07T10:13:34;4.00;;;2.72;;
45039;SDS011;30778;53.574;7.770;2023-09-07T10:16:06;4.43;;;3.17;;
45039;SDS011;30778;53.574;7.770;2023-09-07T10:18:38;5.03;;;2.80;;
45039;SDS011;30778;53.574;7.770;2023-09-07T10:21:04;6.82;;;2.80;;
45039;SDS011;30778;53.574;7.770;2023-09-07T10:23:37;7.00;;;2.80;;
45039;SDS011;30778;53.574;7.770;2023-09-07T10:26:04;3.35;;;2.92;;
45039;SDS011;30778;53.574;7.770;2023-09-07T10:28:30;3.22;;;2.50;;
45039;SDS011;30778;53.574;7.770;2023-09-07T10:31:00;5.93;;;2.95;;
45039;SDS011;30778;53.574;7.770;2023-09-07T10:33:32;4.85;;;3.13;;
45039;SDS011;30778;53.574;7.770;2023-09-07T10:35:58;4.03;;;2.40;;
45039;SDS011;30778;53.574;7.770;2023-09-07T10:38:24;2.72;;;2.40;;
45039;SDS011;30778;53.574;7.770;2023-09-07T10:40:54;4.50;;;3.20;;
45039;SDS011;30778;53.574;7.770;2023-09-07T10:43:25;4.03;;;2.47;;
45039;SDS011;30778;53.574;7.770;2023-09-07T10:45:51;5.35;;;2.55;;
45039;SDS011;30778;53.574;7.770;2023-09-07T10:48:17;3.58;;;2.67;;
45039;SDS011;30778;53.574;7.770;2023-09-07T10:50:44;3.17;;;2.88;;
45039;SDS011;30778;53.574;7.770;2023-09-07T10:53:11;6.07;;;2.53;;
45039;SDS011;30778;53.574;7.770;2023-09-07T10:55:42;4.10;;;2.33;;
45039;SDS011;30778;53.574;7.770;2023-09-07T10:58:10;4.78;;;2.35;;
45039;SDS011;30778;53.574;7.770;2023-09-07T11:00:36;4.30;;;2.63;;
45039;SDS011;30778;53.574;7.770;2023-09-07T11:03:09;4.13;;;2.40;;
45039;SDS011;30778;53.574;7.770;2023-09-07T11:05:36;4.78;;;3.17;;
45039;SDS011;30778;53.574;7.770;2023-09-07T11:08:03;3.97;;;2.65;;
45039;SDS011;30778;53.574;7.770;2023-09-07T11:10:32;6.20;;;2.40;;
45039;SDS011;30778;53.574;7.770;2023-09-07T11:13:01;5.90;;;2.80;;
45039;SDS011;30778;53.574;7.770;2023-09-07T11:15:29;2.88;;;2.47;;
45039;SDS011;30778;53.574;7.770;2023-09-07T11:17:55;6.97;;;2.53;;
45039;SDS011;30778;53.574;7.770;2023-09-07T11:20:23;3.53;;;2.67;;
45039;SDS011;30778;53.574;7.770;2023-09-07T11:22:50;3.30;;;3.00;;
45039;SDS011;30778;53.574;7.770;2023-09-07T11:25:15;4.25;;;2.75;;
45039;SDS011;30778;53.574;7.770;2023-09-07T11:27:41;3.70;;;2.70;;
45039;SDS011;30778;53.574;7.770;2023-09-07T11:30:06;2.85;;;2.65;;
45039;SDS011;30778;53.574;7.770;2023-09-07T11:32:34;6.20;;;2.97;;
45039;SDS011;30778;53.574;7.770;2023-09-07T11:35:02;2.38;;;2.17;;
45039;SDS011;30778;53.574;7.770;2023-09-07T11:37:32;5.07;;;2.72;;
45039;SDS011;30778;53.574;7.770;2023-09-07T11:39:58;4.30;;;2.08;;
45039;SDS011;30778;53.574;7.770;2023-09-07T11:42:23;3.63;;;2.38;;
45039;SDS011;30778;53.574;7.770;2023-09-07T11:44:49;2.88;;;2.55;;
45039;SDS011;30778;53.574;7.770;2023-09-07T11:47:15;3.60;;;2.33;;
45039;SDS011;30778;53.574;7.770;2023-09-07T11:49:40;3.42;;;2.25;;
45039;SDS011;30778;53.574;7.770;2023-09-07T11:52:05;2.92;;;2.40;;
45039;SDS011;30778;53.574;7.770;2023-09-07T11:54:33;5.55;;;2.67;;
45039;SDS011;30778;53.574;7.770;2023-09-07T11:56:59;3.72;;;2.38;;
45039;SDS011;30778;53.574;7.770;2023-09-07T11:59:24;3.78;;;2.28;;
45039;SDS011;30778;53.574;7.770;2023-09-07T12:01:50;4.88;;;2.83;;
45039;SDS011;30778;53.574;7.770;2023-09-07T12:04:16;3.45;;;2.40;;
45039;SDS011;30778;53.574;7.770;2023-09-07T12:06:41;5.25;;;2.20;;
45039;SDS011;30778;53.574;7.770;2023-09-07T12:09:07;5.65;;;2.20;;
45039;SDS011;30778;53.574;7.770;2023-09-07T12:11:34;3.70;;;1.67;;
45039;SDS011;30778;53.574;7.770;2023-09-07T12:13:59;3.70;;;2.33;;
45039;SDS011;30778;53.574;7.770;2023-09-07T12:16:29;2.45;;;2.25;;
45039;SDS011;30778;53.574;7.770;2023-09-07T12:18:55;2.50;;;2.22;;
45039;SDS011;30778;53.574;7.770;2023-09-07T12:21:21;3.83;;;2.75;;
45039;SDS011;30778;53.574;7.770;2023-09-07T12:23:46;5.03;;;2.58;;
45039;SDS011;30778;53.574;7.770;2023-09-07T12:26:13;3.30;;;2.60;;
45039;SDS011;30778;53.574;7.770;2023-09-07T12:28:39;3.05;;;2.50;;
45039;SDS011;30778;53.574;7.770;2023-09-07T12:31:05;4.32;;;2.45;;
45039;SDS011;30778;53.574;7.770;2023-09-07T12:33:30;4.82;;;2.42;;
45039;SDS011;30778;53.574;7.770;2023-09-07T12:35:58;3.30;;;2.45;;
45039;SDS011;30778;53.574;7.770;2023-09-07T12:38:23;2.50;;;2.30;;
45039;SDS011;30778;53.574;7.770;2023-09-07T12:40:53;3.08;;;2.30;;
45039;SDS011;30778;53.574;7.770;2023-09-07T12:43:19;2.90;;;2.60;;
45039;SDS011;30778;53.574;7.770;2023-09-07T12:45:45;1.92;;;1.80;;
45039;SDS011;30778;53.574;7.770;2023-09-07T12:48:11;2.20;;;2.03;;
45039;SDS011;30778;53.574;7.770;2023-09-07T12:50:36;2.80;;;1.90;;
45039;SDS011;30778;53.574;7.770;2023-09-07T12:53:02;2.35;;;2.08;;
45039;SDS011;30778;53.574;7.770;2023-09-07T12:55:27;5.15;;;1.98;;
45039;SDS011;30778;53.574;7.770;2023-09-07T12:57:55;3.88;;;1.60;;
45039;SDS011;30778;53.574;7.770;2023-09-07T13:00:21;3.10;;;2.50;;
45039;SDS011;30778;53.574;7.770;2023-09-07T13:02:47;4.50;;;1.83;;
45039;SDS011;30778;53.574;7.770;2023-09-07T13:05:12;3.47;;;2.03;;
45039;SDS011;30778;53.574;7.770;2023-09-07T13:07:38;4.05;;;2.58;;
45039;SDS011;30778;53.574;7.770;2023-09-07T13:10:04;3.58;;;2.10;;
45039;SDS011;30778;53.574;7.770;2023-09-07T13:12:31;3.55;;;2.72;;
45039;SDS011;30778;53.574;7.770;2023-09-07T13:14:58;2.53;;;2.33;;
45039;SDS011;30778;53.574;7.770;2023-09-07T13:17:24;4.80;;;2.05;;
45039;SDS011;30778;53.574;7.770;2023-09-07T13:19:49;2.03;;;1.52;;
45039;SDS011;30778;53.574;7.770;2023-09-07T13:22:16;3.33;;;2.22;;
45039;SDS011;30778;53.574;7.770;2023-09-07T13:24:42;3.65;;;2.28;;
45039;SDS011;30778;53.574;7.770;2023-09-07T13:27:08;2.35;;;2.15;;
45039;SDS011;30778;53.574;7.770;2023-09-07T13:29:35;2.38;;;2.17;;
45039;SDS011;30778;53.574;7.770;2023-09-07T13:32:00;2.95;;;2.10;;
45039;SDS011;30778;53.574;7.770;2023-09-07T13:34:26;3.20;;;2.30;;
45039;SDS011;30778;53.574;7.770;2023-09-07T13:36:52;3.28;;;2.25;;
45039;SDS011;30778;53.574;7.770;2023-09-07T13:39:18;4.32;;;1.83;;
45039;SDS011;30778;53.574;7.770;2023-09-07T13:41:47;3.10;;;1.50;;
45039;SDS011;30778;53.574;7.770;2023-09-07T13:44:13;5.30;;;2.20;;
45039;SDS011;30778;53.574;7.770;2023-09-07T13:46:39;3.15;;;2.33;;
45039;SDS011;30778;53.574;7.770;2023-09-07T13:49:05;2.03;;;1.63;;
45039;SDS011;30778;53.574;7.770;2023-09-07T13:51:30;4.65;;;1.80;;
45039;SDS011;30778;53.574;7.770;2023-09-07T13:54:05;2.67;;;1.60;;
45039;SDS011;30778;53.574;7.770;2023-09-07T13:56:34;2.92;;;1.92;;
45039;SDS011;30778;53.574;7.770;2023-09-07T13:59:01;2.80;;;1.70;;
45039;SDS011;30778;53.574;7.770;2023-09-07T14:01:26;4.68;;;1.88;;
45039;SDS011;30778;53.574;7.770;2023-09-07T14:03:52;3.17;;;1.65;;
45039;SDS011;30778;53.574;7.770;2023-09-07T14:06:17;3.97;;;2.15;;
45039;SDS011;30778;53.574;7.770;2023-09-07T14:08:45;2.22;;;1.23;;
45039;SDS011;30778;53.574;7.770;2023-09-07T14:11:11;4.45;;;1.60;;
45039;SDS011;30778;53.574;7.770;2023-09-07T14:13:37;3.25;;;1.33;;
45039;SDS011;30778;53.574;7.770;2023-09-07T14:16:03;1.98;;;1.80;;
45039;SDS011;30778;53.574;7.770;2023-09-07T14:18:29;2.58;;;1.63;;
45039;SDS011;30778;53.574;7.770;2023-09-07T14:20:54;3.50;;;1.80;;
45039;SDS011;30778;53.574;7.770;2023-09-07T14:23:24;4.15;;;1.63;;
45039;SDS011;30778;53.574;7.770;2023-09-07T14:25:54;3.40;;;1.50;;
45039;SDS011;30778;53.574;7.770;2023-09-07T14:28:19;4.00;;;2.15;;
45039;SDS011;30778;53.574;7.770;2023-09-07T14:30:45;4.43;;;2.13;;
45039;SDS011;30778;53.574;7.770;2023-09-07T14:33:11;4.05;;;1.70;;
45039;SDS011;30778;53.574;7.770;2023-09-07T14:35:37;3.95;;;2.25;;
45039;SDS011;30778;53.574;7.770;2023-09-07T14:38:02;2.08;;;1.77;;
45039;SDS011;30778;53.574;7.770;2023-09-07T14:40:28;1.80;;;1.40;;
45039;SDS011;30778;53.574;7.770;2023-09-07T14:42:53;2.25;;;1.90;;
45039;SDS011;30778;53.574;7.770;2023-09-07T14:45:19;4.63;;;1.67;;